createdAt,value
2022-08-30T00:02:05.256Z,17.71
2022-08-30T00:04:31.886Z,17.71
2022-08-30T00:06:58.810Z,17.72
2022-08-30T00:09:25.449Z,17.67
2022-08-30T00:11:52.186Z,17.68
2022-08-30T00:14:20.434Z,17.73
2022-08-30T00:16:47.108Z,17.76
2022-08-30T00:19:13.910Z,17.68
2022-08-30T00:21:40.776Z,17.55
2022-08-30T00:24:07.459Z,17.64
2022-08-30T00:26:34.254Z,17.62
2022-08-30T00:29:00.916Z,17.64
2022-08-30T00:31:27.595Z,17.62
2022-08-30T00:33:54.235Z,17.58
2022-08-30T00:36:21.244Z,17.54
2022-08-30T00:38:47.861Z,17.40
2022-08-30T00:41:14.603Z,17.41
2022-08-30T00:43:41.243Z,17.29
2022-08-30T00:46:10.329Z,17.39
2022-08-30T00:48:43.157Z,17.14
2022-08-30T00:51:13.144Z,17.22
2022-08-30T00:53:44.563Z,17.17
2022-08-30T00:56:12.018Z,17.08
2022-08-30T00:58:42.382Z,16.82
2022-08-30T01:01:10.020Z,17.04
2022-08-30T01:03:38.397Z,17.02
2022-08-30T01:06:07.595Z,17.00
2022-08-30T01:08:35.360Z,17.04
2022-08-30T01:11:03.856Z,16.78
2022-08-30T01:13:31.484Z,16.92
2022-08-30T01:16:00.105Z,16.91
2022-08-30T01:18:27.379Z,16.88
2022-08-30T01:21:10.394Z,16.85
2022-08-30T01:23:40.430Z,16.89
2022-08-30T01:26:07.622Z,16.92
2022-08-30T01:28:34.744Z,16.85
2022-08-30T01:31:01.989Z,16.89
2022-08-30T01:33:29.123Z,16.61
2022-08-30T01:36:01.190Z,16.84
2022-08-30T01:38:34.064Z,16.60
2022-08-30T01:41:10.399Z,16.84
2022-08-30T01:43:37.017Z,16.77
2022-08-30T01:46:04.546Z,16.74
2022-08-30T01:48:31.874Z,16.81
2022-08-30T01:50:58.997Z,16.75
2022-08-30T01:53:25.632Z,16.71
2022-08-30T01:55:52.359Z,16.61
2022-08-30T01:58:18.953Z,16.59
2022-08-30T02:00:45.588Z,16.71
2022-08-30T02:03:12.365Z,16.62
2022-08-30T02:05:39.165Z,16.42
2022-08-30T02:08:05.763Z,16.25
2022-08-30T02:10:32.588Z,16.12
2022-08-30T02:12:59.766Z,16.23
2022-08-30T02:15:26.622Z,16.34
2022-08-30T02:17:53.998Z,16.31
2022-08-30T02:20:20.795Z,16.24
2022-08-30T02:22:49.314Z,16.18
2022-08-30T02:25:20.406Z,16.26
2022-08-30T02:27:47.729Z,15.91
2022-08-30T02:30:14.466Z,16.04
2022-08-30T02:32:41.620Z,16.01
2022-08-30T02:35:08.657Z,16.07
2022-08-30T02:37:35.455Z,16.06
2022-08-30T02:40:02.270Z,16.05
2022-08-30T02:42:28.979Z,15.96
2022-08-30T02:44:56.830Z,16.05
2022-08-30T02:47:23.450Z,15.96
2022-08-30T02:49:50.028Z,15.78
2022-08-30T02:52:16.774Z,15.93
2022-08-30T02:54:43.514Z,15.93
2022-08-30T02:57:20.186Z,15.95
2022-08-30T02:59:48.070Z,15.75
2022-08-30T03:02:15.578Z,15.79
2022-08-30T03:04:44.969Z,15.74
2022-08-30T03:07:12.802Z,15.73
2022-08-30T03:09:39.726Z,15.72
2022-08-30T03:12:07.832Z,15.60
2022-08-30T03:14:36.349Z,15.65
2022-08-30T03:17:04.903Z,15.69
2022-08-30T03:19:31.573Z,15.68
2022-08-30T03:21:58.211Z,15.69
2022-08-30T03:24:25.906Z,15.54
2022-08-30T03:26:52.817Z,15.55
2022-08-30T03:29:19.434Z,15.54
2022-08-30T03:31:53.613Z,15.53
2022-08-30T03:34:21.928Z,15.53
2022-08-30T03:36:49.478Z,15.60
2022-08-30T03:39:16.205Z,15.49
2022-08-30T03:41:42.882Z,15.53
2022-08-30T03:44:09.554Z,15.52
2022-08-30T03:46:37.562Z,15.49
2022-08-30T03:49:05.424Z,15.39
2022-08-30T03:51:33.903Z,15.20
2022-08-30T03:54:01.754Z,15.34
2022-08-30T03:56:28.815Z,15.26
2022-08-30T03:58:55.409Z,15.23
2022-08-30T04:01:22.190Z,15.19
2022-08-30T04:03:48.857Z,15.09
2022-08-30T04:06:15.712Z,15.27
2022-08-30T04:08:43.322Z,15.02
2022-08-30T04:11:14.976Z,15.07
2022-08-30T04:13:41.566Z,15.09
2022-08-30T04:16:08.248Z,15.03
2022-08-30T04:18:36.586Z,15.00
2022-08-30T04:21:04.234Z,14.82
2022-08-30T04:23:30.868Z,15.00
2022-08-30T04:25:57.495Z,15.07
2022-08-30T04:28:24.410Z,15.00
2022-08-30T04:30:51.109Z,15.02
2022-08-30T04:33:18.025Z,15.01
2022-08-30T04:35:46.850Z,15.03
2022-08-30T04:38:14.252Z,14.99
2022-08-30T04:40:42.525Z,15.02
2022-08-30T04:43:09.842Z,15.04
2022-08-30T04:45:38.363Z,15.00
2022-08-30T04:48:05.172Z,15.01
2022-08-30T04:50:32.361Z,15.03
2022-08-30T04:52:59.650Z,14.94
2022-08-30T04:55:26.292Z,14.99
2022-08-30T04:57:53.328Z,15.01
2022-08-30T05:00:23.359Z,14.98
2022-08-30T05:02:50.069Z,15.01
2022-08-30T05:05:35.922Z,14.91
2022-08-30T05:08:02.801Z,14.97
2022-08-30T05:10:29.753Z,14.96
2022-08-30T05:12:56.589Z,15.11
2022-08-30T05:15:23.179Z,15.08
2022-08-30T05:17:49.964Z,15.97
2022-08-30T05:20:17.312Z,17.19
2022-08-30T05:22:53.664Z,17.71
2022-08-30T05:25:24.006Z,17.70
2022-08-30T05:27:51.103Z,17.53
2022-08-30T05:30:18.964Z,18.28
2022-08-30T05:32:46.101Z,18.82
2022-08-30T05:35:15.138Z,19.27
2022-08-30T05:37:42.195Z,20.09
2022-08-30T05:40:10.896Z,20.44
2022-08-30T05:42:38.554Z,20.61
2022-08-30T05:45:06.110Z,20.88
2022-08-30T05:47:32.711Z,21.27
2022-08-30T05:49:59.428Z,21.76
2022-08-30T05:52:26.043Z,21.96
2022-08-30T05:54:55.740Z,22.23
2022-08-30T05:57:22.816Z,22.77
2022-08-30T05:59:49.417Z,23.18
2022-08-30T06:02:16.114Z,23.20
2022-08-30T06:04:42.730Z,23.28
2022-08-30T06:07:12.929Z,23.37
2022-08-30T06:09:42.221Z,23.49
2022-08-30T06:12:08.912Z,23.79
2022-08-30T06:14:35.618Z,23.57
2022-08-30T06:17:02.193Z,23.95
2022-08-30T06:19:28.862Z,23.93
2022-08-30T06:21:55.682Z,24.21
2022-08-30T06:24:35.779Z,24.14
2022-08-30T06:27:10.063Z,24.43
2022-08-30T06:29:36.783Z,24.27
2022-08-30T06:32:03.781Z,24.41
2022-08-30T06:34:30.769Z,24.41
2022-08-30T06:36:57.322Z,24.39
2022-08-30T06:39:24.066Z,24.46
2022-08-30T06:41:50.765Z,24.55
2022-08-30T06:44:17.733Z,24.47
2022-08-30T06:46:44.437Z,24.44
2022-08-30T06:49:11.162Z,24.64
2022-08-30T06:51:39.749Z,24.67
2022-08-30T06:54:10.622Z,24.88
2022-08-30T06:56:40.199Z,24.89
2022-08-30T06:59:09.530Z,24.84
2022-08-30T07:01:36.280Z,24.90
2022-08-30T07:04:03.333Z,25.19
2022-08-30T07:06:32.363Z,25.08
2022-08-30T07:08:59.007Z,25.22
2022-08-30T07:11:36.941Z,25.48
2022-08-30T07:14:04.848Z,25.39
2022-08-30T07:16:31.807Z,25.11
2022-08-30T07:18:58.851Z,24.88
2022-08-30T07:21:28.850Z,25.06
2022-08-30T07:23:58.364Z,24.82
2022-08-30T07:26:33.511Z,25.36
2022-08-30T07:29:00.846Z,25.83
2022-08-30T07:31:27.598Z,25.74
2022-08-30T07:33:54.584Z,26.05
2022-08-30T07:36:22.105Z,26.17
2022-08-30T07:38:52.744Z,26.25
2022-08-30T07:41:26.330Z,25.99
2022-08-30T07:43:53.787Z,26.23
2022-08-30T07:46:21.797Z,26.26
2022-08-30T07:48:48.722Z,26.27
2022-08-30T07:51:22.230Z,26.11
2022-08-30T07:53:49.024Z,26.51
2022-08-30T07:56:16.437Z,26.68
2022-08-30T07:58:43.252Z,26.37
2022-08-30T08:01:12.299Z,26.80
2022-08-30T08:03:40.991Z,26.95
2022-08-30T08:06:09.280Z,27.15
2022-08-30T08:08:36.437Z,27.17
2022-08-30T08:11:08.697Z,27.07
2022-08-30T08:13:44.657Z,26.90
2022-08-30T08:16:22.221Z,26.94
2022-08-30T08:18:48.878Z,27.34
2022-08-30T08:21:15.634Z,27.10
2022-08-30T08:23:42.635Z,27.50
2022-08-30T08:26:09.361Z,27.77
2022-08-30T08:28:36.007Z,27.84
2022-08-30T08:31:03.609Z,27.80
2022-08-30T08:33:30.641Z,28.04
2022-08-30T08:35:57.237Z,28.09
2022-08-30T08:38:23.810Z,28.22
2022-08-30T08:41:11.116Z,28.42
2022-08-30T08:43:38.211Z,28.29
2022-08-30T08:46:30.037Z,28.32
2022-08-30T08:49:04.051Z,28.76
2022-08-30T08:51:54.401Z,28.56
2022-08-30T08:54:33.051Z,28.46
2022-08-30T08:57:00.920Z,28.72
2022-08-30T08:59:27.936Z,28.42
2022-08-30T09:02:00.894Z,28.35
2022-08-30T09:04:33.897Z,28.55
2022-08-30T09:07:05.616Z,28.07
2022-08-30T09:09:40.788Z,28.90
2022-08-30T09:12:10.310Z,28.85
2022-08-30T09:14:45.976Z,29.13
2022-08-30T09:17:15.859Z,29.27
2022-08-30T09:19:42.465Z,28.86
2022-08-30T09:22:25.945Z,29.27
2022-08-30T09:24:54.623Z,29.08
2022-08-30T09:27:27.118Z,28.82
2022-08-30T09:30:18.804Z,29.33
2022-08-30T09:32:57.267Z,29.58
2022-08-30T09:35:37.034Z,29.52
2022-08-30T09:38:07.023Z,29.66
2022-08-30T09:40:38.703Z,29.33
2022-08-30T09:43:17.341Z,29.18
2022-08-30T09:45:49.677Z,29.69
2022-08-30T09:48:40.497Z,29.24
2022-08-30T09:51:10.108Z,29.70
2022-08-30T09:54:19.007Z,29.46
2022-08-30T09:56:54.864Z,29.04
2022-08-30T09:59:39.732Z,29.01
2022-08-30T10:02:28.358Z,28.78
2022-08-30T10:05:16.363Z,29.20
2022-08-30T10:08:01.914Z,29.27
2022-08-30T10:10:45.641Z,29.23
2022-08-30T10:13:28.716Z,29.28
2022-08-30T10:16:05.051Z,29.71
2022-08-30T10:18:56.030Z,29.71
2022-08-30T10:21:40.951Z,29.49
2022-08-30T10:24:20.777Z,29.67
2022-08-30T10:26:57.463Z,29.32
2022-08-30T10:29:30.693Z,29.51
2022-08-30T10:32:03.414Z,29.96
2022-08-30T10:34:40.001Z,29.99
2022-08-30T10:37:37.348Z,30.17
2022-08-30T10:40:32.089Z,30.96
2022-08-30T10:43:02.803Z,30.50
2022-08-30T10:45:32.440Z,29.60
2022-08-30T10:48:36.662Z,29.49
2022-08-30T10:51:14.318Z,29.17
2022-08-30T10:53:47.986Z,29.09
2022-08-30T10:56:21.276Z,29.13
2022-08-30T10:58:48.962Z,29.52
2022-08-30T11:01:51.389Z,29.96
2022-08-30T11:04:32.956Z,29.75
2022-08-30T11:07:18.133Z,30.51
2022-08-30T11:10:20.174Z,30.17
2022-08-30T11:13:09.333Z,30.13
2022-08-30T11:15:53.336Z,30.05
2022-08-30T11:18:21.523Z,29.87
2022-08-30T11:20:53.414Z,29.50
2022-08-30T11:23:36.345Z,29.54
2022-08-30T11:26:08.004Z,29.43
2022-08-30T11:28:41.753Z,29.75
2022-08-30T11:31:09.635Z,29.68
2022-08-30T11:33:42.685Z,29.73
2022-08-30T11:36:37.851Z,28.68
2022-08-30T11:39:44.510Z,28.61
2022-08-30T11:42:29.298Z,29.31
2022-08-30T11:45:24.704Z,29.69
2022-08-30T11:47:52.126Z,29.79
2022-08-30T11:50:40.394Z,29.84
2022-08-30T11:53:06.956Z,29.13
2022-08-30T11:55:46.162Z,29.65
2022-08-30T11:58:43.976Z,29.60
2022-08-30T12:01:40.767Z,29.44
2022-08-30T12:04:16.634Z,29.43
2022-08-30T12:07:09.614Z,29.85
2022-08-30T12:09:36.203Z,29.59
2022-08-30T12:12:32.534Z,29.61
2022-08-30T12:15:00.342Z,29.60
2022-08-30T12:18:06.706Z,29.57
2022-08-30T12:20:47.907Z,29.35
2022-08-30T12:23:44.426Z,28.49
2022-08-30T12:26:13.274Z,28.83
2022-08-30T12:28:42.167Z,28.75
2022-08-30T12:31:22.944Z,28.98
2022-08-30T12:34:01.253Z,28.86
2022-08-30T12:36:49.662Z,29.00
2022-08-30T12:39:20.509Z,28.73
2022-08-30T12:41:47.135Z,28.87
2022-08-30T12:44:25.567Z,28.90
2022-08-30T12:46:59.566Z,28.82
2022-08-30T12:49:29.714Z,28.87
2022-08-30T12:52:15.911Z,28.98
2022-08-30T12:54:44.107Z,28.67
2022-08-30T12:57:34.210Z,28.60
2022-08-30T13:00:01.846Z,28.72
2022-08-30T13:02:45.104Z,28.47
2022-08-30T13:05:42.944Z,28.39
2022-08-30T13:08:35.831Z,28.32
2022-08-30T13:11:08.270Z,28.12
2022-08-30T13:13:37.639Z,28.06
2022-08-30T13:16:20.677Z,28.49
2022-08-30T13:18:53.357Z,28.27
2022-08-30T13:21:22.658Z,28.53
2022-08-30T13:23:51.559Z,28.69
2022-08-30T13:26:23.256Z,28.67
2022-08-30T13:28:55.240Z,28.68
2022-08-30T13:31:22.622Z,28.98
2022-08-30T13:33:52.992Z,28.82
2022-08-30T13:36:28.198Z,28.91
2022-08-30T13:38:55.476Z,28.70
2022-08-30T13:41:22.246Z,28.74
2022-08-30T13:46:36.613Z,28.85
2022-08-30T13:49:42.880Z,28.90
2022-08-30T13:52:16.333Z,28.61
2022-08-30T13:54:40.825Z,28.75
2022-08-30T13:57:07.462Z,28.69
2022-08-30T13:59:34.394Z,28.37
2022-08-30T14:02:10.696Z,28.57
2022-08-30T14:04:38.423Z,28.53
2022-08-30T14:07:13.926Z,28.49
2022-08-30T14:09:46.697Z,28.46
2022-08-30T14:12:13.459Z,28.45
2022-08-30T14:14:43.278Z,28.45
2022-08-30T14:17:11.191Z,28.61
2022-08-30T14:19:39.287Z,28.30
2022-08-30T14:22:05.885Z,28.29
2022-08-30T14:24:32.478Z,28.14
2022-08-30T14:26:59.125Z,28.15
2022-08-30T14:29:29.785Z,28.29
2022-08-30T14:31:59.674Z,28.24
2022-08-30T14:34:26.607Z,28.39
2022-08-30T14:36:53.309Z,28.32
2022-08-30T14:39:21.376Z,28.25
2022-08-30T14:41:53.507Z,27.89
2022-08-30T14:44:22.872Z,28.23
2022-08-30T14:46:51.054Z,28.36
2022-08-30T14:49:19.152Z,28.11
2022-08-30T14:51:48.484Z,28.15
2022-08-30T14:54:17.710Z,28.38
2022-08-30T14:56:45.271Z,28.39
2022-08-30T14:59:12.191Z,28.28
2022-08-30T15:01:41.507Z,28.33
2022-08-30T15:04:09.765Z,28.49
2022-08-30T15:06:38.545Z,28.39
2022-08-30T15:09:09.099Z,28.22
2022-08-30T15:11:38.312Z,28.49
2022-08-30T15:14:06.453Z,28.46
2022-08-30T15:16:36.041Z,28.59
2022-08-30T15:19:05.031Z,28.36
2022-08-30T15:21:37.744Z,28.06
2022-08-30T15:24:06.114Z,28.07
2022-08-30T15:26:33.298Z,28.20
2022-08-30T15:28:59.903Z,27.69
2022-08-30T15:31:28.753Z,27.78
2022-08-30T15:33:55.471Z,27.97
2022-08-30T15:36:23.948Z,27.89
2022-08-30T15:38:55.474Z,27.79
2022-08-30T15:41:23.696Z,27.89
2022-08-30T15:43:52.853Z,27.77
2022-08-30T15:46:23.685Z,27.80
2022-08-30T15:49:00.535Z,27.45
2022-08-30T15:51:27.283Z,27.43
2022-08-30T15:53:54.426Z,27.50
2022-08-30T15:56:21.235Z,27.42
2022-08-30T15:58:48.412Z,27.41
2022-08-30T16:01:16.290Z,27.33
2022-08-30T16:03:46.803Z,27.40
2022-08-30T16:06:28.258Z,27.44
2022-08-30T16:08:55.760Z,27.25
2022-08-30T16:11:24.868Z,27.32
2022-08-30T16:13:53.605Z,27.50
2022-08-30T16:16:21.484Z,27.54
2022-08-30T16:18:53.976Z,27.14
2022-08-30T16:21:25.485Z,27.34
2022-08-30T16:23:55.158Z,27.11
2022-08-30T16:26:22.276Z,27.21
2022-08-30T16:28:49.297Z,27.26
2022-08-30T16:31:18.015Z,27.20
2022-08-30T16:33:45.321Z,27.13
2022-08-30T16:36:12.795Z,26.89
2022-08-30T16:38:40.874Z,26.78
2022-08-30T16:41:11.182Z,26.77
2022-08-30T16:43:39.667Z,26.55
2022-08-30T16:46:12.396Z,26.33
2022-08-30T16:48:41.130Z,26.42
2022-08-30T16:51:12.594Z,26.44
2022-08-30T16:53:39.863Z,26.25
2022-08-30T16:56:13.570Z,26.15
2022-08-30T16:58:41.101Z,26.07
2022-08-30T17:01:08.554Z,26.03
2022-08-30T17:03:37.645Z,25.76
2022-08-30T17:06:05.816Z,25.65
2022-08-30T17:08:33.342Z,25.44
2022-08-30T17:10:59.924Z,25.44
2022-08-30T17:13:27.010Z,25.45
2022-08-30T17:15:53.693Z,25.38
2022-08-30T17:18:20.545Z,25.24
2022-08-30T17:20:47.819Z,25.16
2022-08-30T17:23:14.909Z,25.20
2022-08-30T17:25:43.276Z,25.06
2022-08-30T17:28:10.750Z,24.93
2022-08-30T17:30:37.690Z,24.93
2022-08-30T17:33:04.570Z,24.93
2022-08-30T17:35:31.213Z,24.78
2022-08-30T17:37:58.031Z,24.83
2022-08-30T17:40:24.692Z,24.60
2022-08-30T17:42:51.502Z,24.63
2022-08-30T17:45:18.790Z,24.61
2022-08-30T17:47:45.858Z,24.61
2022-08-30T17:50:14.272Z,24.42
2022-08-30T17:52:42.166Z,24.42
2022-08-30T17:55:10.027Z,24.38
2022-08-30T17:57:37.176Z,24.25
2022-08-30T18:00:07.768Z,24.18
2022-08-30T18:02:34.801Z,23.78
2022-08-30T18:05:04.835Z,23.70
2022-08-30T18:07:31.578Z,23.84
2022-08-30T18:09:59.422Z,23.79
2022-08-30T18:12:26.165Z,23.63
2022-08-30T18:14:54.035Z,23.59
2022-08-30T18:17:21.115Z,23.51
2022-08-30T18:19:47.932Z,23.49
2022-08-30T18:22:16.490Z,23.47
2022-08-30T18:24:44.926Z,23.29
2022-08-30T18:27:12.003Z,23.19
2022-08-30T18:29:40.560Z,23.26
2022-08-30T18:32:09.198Z,23.17
2022-08-30T18:34:35.994Z,23.16
2022-08-30T18:37:02.776Z,23.19
2022-08-30T18:39:34.602Z,23.14
2022-08-30T18:42:02.105Z,22.98
2022-08-30T18:44:33.421Z,22.90
2022-08-30T18:47:03.637Z,22.95
2022-08-30T18:49:32.583Z,22.84
2022-08-30T18:52:00.479Z,22.63
2022-08-30T18:54:27.749Z,22.67
2022-08-30T18:56:54.539Z,22.59
2022-08-30T18:59:21.544Z,22.47
2022-08-30T19:01:49.118Z,22.57
2022-08-30T19:04:22.178Z,22.55
2022-08-30T19:06:55.435Z,22.39
2022-08-30T19:09:23.438Z,22.49
2022-08-30T19:11:50.021Z,22.41
2022-08-30T19:14:19.125Z,22.39
2022-08-30T19:16:45.781Z,22.33
2022-08-30T19:19:13.022Z,22.31
2022-08-30T19:21:40.187Z,22.26
2022-08-30T19:24:07.906Z,22.23
2022-08-30T19:26:35.904Z,22.14
2022-08-30T19:29:04.994Z,21.98
2022-08-30T19:31:31.893Z,21.92
2022-08-30T19:33:58.722Z,21.84
2022-08-30T19:36:25.519Z,21.71
2022-08-30T19:38:52.110Z,21.70
2022-08-30T19:41:22.396Z,21.61
2022-08-30T19:43:49.608Z,21.66
2022-08-30T19:46:16.341Z,21.66
2022-08-30T19:48:43.309Z,21.60
2022-08-30T19:51:15.177Z,21.43
2022-08-30T19:53:43.055Z,21.43
2022-08-30T19:56:09.898Z,21.46
2022-08-30T19:58:36.502Z,21.34
2022-08-30T20:01:10.557Z,21.38
2022-08-30T20:03:39.791Z,21.37
2022-08-30T20:06:07.890Z,21.23
2022-08-30T20:08:36.111Z,21.26
2022-08-30T20:11:03.020Z,21.25
2022-08-30T20:13:29.651Z,21.19
2022-08-30T20:16:00.521Z,21.13
2022-08-30T20:18:27.232Z,21.05
2022-08-30T20:20:55.309Z,21.05
2022-08-30T20:23:25.681Z,21.09
2022-08-30T20:25:54.777Z,21.01
2022-08-30T20:28:21.950Z,21.01
2022-08-30T20:30:49.628Z,21.04
2022-08-30T20:33:17.377Z,21.02
2022-08-30T20:35:48.754Z,20.93
2022-08-30T20:38:21.647Z,20.86
2022-08-30T20:40:51.263Z,20.79
2022-08-30T20:43:20.946Z,20.70
2022-08-30T20:45:48.466Z,20.70
2022-08-30T20:48:15.702Z,20.56
2022-08-30T20:50:43.314Z,20.59
2022-08-30T20:53:10.313Z,20.55
2022-08-30T20:55:47.450Z,20.49
2022-08-30T20:58:14.503Z,20.43
2022-08-30T21:00:45.622Z,20.41
2022-08-30T21:03:27.496Z,20.38
2022-08-30T21:05:55.450Z,20.35
2022-08-30T21:08:22.139Z,20.35
2022-08-30T21:10:48.821Z,20.25
2022-08-30T21:13:15.779Z,20.27
2022-08-30T21:15:46.052Z,20.30
2022-08-30T21:18:14.644Z,20.20
2022-08-30T21:20:41.692Z,20.15
2022-08-30T21:23:08.393Z,20.17
2022-08-30T21:25:39.153Z,20.10
2022-08-30T21:28:07.044Z,20.06
2022-08-30T21:30:34.882Z,19.93
2022-08-30T21:33:03.816Z,19.90
2022-08-30T21:35:48.633Z,19.84
2022-08-30T21:38:15.961Z,19.78
2022-08-30T21:40:43.198Z,19.70
2022-08-30T21:43:10.827Z,19.69
2022-08-30T21:45:42.354Z,19.69
2022-08-30T21:48:10.962Z,19.75
2022-08-30T21:50:42.687Z,19.73
2022-08-30T21:53:10.648Z,19.63
2022-08-30T21:55:37.460Z,19.52
2022-08-30T21:58:04.734Z,19.49
2022-08-30T22:00:33.649Z,19.52
2022-08-30T22:03:00.491Z,19.52
2022-08-30T22:05:27.385Z,19.52
2022-08-30T22:07:54.103Z,19.37
2022-08-30T22:10:21.224Z,19.31
2022-08-30T22:12:47.946Z,19.26
2022-08-30T22:15:15.015Z,19.27
2022-08-30T22:17:43.245Z,19.17
2022-08-30T22:20:10.378Z,19.08
2022-08-30T22:22:37.962Z,19.12
2022-08-30T22:25:04.934Z,18.94
2022-08-30T22:27:31.662Z,18.95
2022-08-30T22:29:58.254Z,18.85
2022-08-30T22:32:24.839Z,18.80
2022-08-30T22:34:51.642Z,18.80
2022-08-30T22:37:18.290Z,18.83
2022-08-30T22:39:44.968Z,18.81
2022-08-30T22:42:11.630Z,18.70
2022-08-30T22:44:40.936Z,18.57
2022-08-30T22:47:08.725Z,18.55
2022-08-30T22:49:35.355Z,18.68
2022-08-30T22:52:01.944Z,18.74
2022-08-30T22:54:28.656Z,18.65
2022-08-30T22:56:55.232Z,18.49
2022-08-30T22:59:24.372Z,18.38
2022-08-30T23:02:00.324Z,18.27
2022-08-30T23:04:27.132Z,18.32
2022-08-30T23:06:53.887Z,18.29
2022-08-30T23:09:20.513Z,18.32
2022-08-30T23:11:47.387Z,18.14
2022-08-30T23:14:14.239Z,18.20
2022-08-30T23:16:40.885Z,18.20
2022-08-30T23:19:07.535Z,18.00
2022-08-30T23:21:34.124Z,17.93
2022-08-30T23:24:19.325Z,17.79
2022-08-30T23:27:05.113Z,17.65
2022-08-30T23:29:51.576Z,17.69
2022-08-30T23:32:37.594Z,17.60
2022-08-30T23:35:29.154Z,17.76
2022-08-30T23:38:18.538Z,17.72
2022-08-30T23:41:03.991Z,17.58
2022-08-30T23:43:49.393Z,17.40
2022-08-30T23:46:34.741Z,17.41
2022-08-30T23:49:20.517Z,17.46
2022-08-30T23:52:05.647Z,17.21
2022-08-30T23:54:50.846Z,17.16
2022-08-30T23:57:36.025Z,17.19
